Time;durP1;ratioP1;P1;durP2;ratioP2;P2;SDS_P1;SDS_P2;PMS_P1;PMS_P2;Temp;Humidity;BMP_temperature;BMP_pressure;BME280_temperature;BME280_humidity;BME280_pressure;Samples;Min_cycle;Max_cycle;Signal;HPM_P1;HPM_P2
2021/03/26 00:00:09;;;;;;;32.30;24.73;;;;;;;;;;5094658;28;20457;-60
2021/03/26 00:02:36;;;;;;;39.50;26.42;;;;;;;;;;5094795;28;20243;-60
2021/03/26 00:05:02;;;;;;;29.70;24.20;;;;;;;;;;5094546;28;20220;-60
2021/03/26 00:07:29;;;;;;;30.02;23.58;;;;;;;;;;5093836;28;20257;-61
2021/03/26 00:09:56;;;;;;;32.33;22.73;;;;;;;;;;5094483;28;20205;-60
2021/03/26 00:12:23;;;;;;;32.15;24.08;;;;;;;;;;5094306;28;20200;-60
2021/03/26 00:14:50;;;;;;;30.80;23.27;;;;;;;;;;5094010;28;20217;-60
2021/03/26 00:17:17;;;;;;;35.50;26.20;;;;;;;;;;5094213;28;20447;-60
2021/03/26 00:19:44;;;;;;;30.88;23.17;;;;;;;;;;5093414;28;20200;-59
2021/03/26 00:22:11;;;;;;;32.22;25.42;;;;;;;;;;5101431;28;20200;-61
2021/03/26 00:24:37;;;;;;;36.15;26.17;;;;;;;;;;5101128;28;20220;-60
2021/03/26 00:27:04;;;;;;;34.90;25.70;;;;;;;;;;5098696;28;20253;-61
2021/03/26 00:29:31;;;;;;;39.05;26.63;;;;;;;;;;5098096;28;20269;-60
2021/03/26 00:31:58;;;;;;;33.88;25.45;;;;;;;;;;5098013;28;20207;-60
2021/03/26 00:34:26;;;;;;;34.30;25.00;;;;;;;;;;5097611;28;20224;-59
2021/03/26 00:36:52;;;;;;;33.95;25.92;;;;;;;;;;5097938;28;20204;-59
2021/03/26 00:39:19;;;;;;;35.70;25.17;;;;;;;;;;5099221;28;20203;-59
2021/03/26 00:41:46;;;;;;;32.25;24.50;;;;;;;;;;5097336;28;20199;-60
2021/03/26 00:44:12;;;;;;;34.72;25.23;;;;;;;;;;5097964;28;20245;-60
2021/03/26 00:46:41;;;;;;;33.67;24.70;;;;;;;;;;5097565;28;20200;-60
2021/03/26 00:49:07;;;;;;;38.00;26.05;;;;;;;;;;5097049;28;20291;-60
2021/03/26 00:51:36;;;;;;;35.42;24.55;;;;;;;;;;5097902;28;20201;-60
2021/03/26 00:54:03;;;;;;;40.28;26.00;;;;;;;;;;5097256;28;20220;-60
2021/03/26 00:56:30;;;;;;;33.88;25.00;;;;;;;;;;5097355;28;20203;-60
2021/03/26 00:58:56;;;;;;;40.92;24.77;;;;;;;;;;5097212;28;20196;-60
2021/03/26 01:01:23;;;;;;;32.40;24.48;;;;;;;;;;5097195;28;20202;-60
2021/03/26 01:03:50;;;;;;;37.03;27.55;;;;;;;;;;5097054;28;20204;-60
2021/03/26 01:06:17;;;;;;;37.15;26.58;;;;;;;;;;5097234;28;20257;-60
2021/03/26 01:08:45;;;;;;;35.20;25.27;;;;;;;;;;5096725;28;20220;-59
2021/03/26 01:11:14;;;;;;;36.90;26.33;;;;;;;;;;5097100;28;20205;-60
2021/03/26 01:13:41;;;;;;;32.65;23.65;;;;;;;;;;5096967;28;20269;-59
2021/03/26 01:16:08;;;;;;;37.92;26.30;;;;;;;;;;5097438;28;20200;-60
2021/03/26 01:18:38;;;;;;;35.33;22.98;;;;;;;;;;5097843;28;20199;-59
2021/03/26 01:21:06;;;;;;;31.65;24.10;;;;;;;;;;5100760;28;20200;-61
2021/03/26 01:23:32;;;;;;;38.97;25.45;;;;;;;;;;5099574;28;20196;-60
2021/03/26 01:26:01;;;;;;;34.70;26.15;;;;;;;;;;5096928;28;20200;-60
2021/03/26 01:28:29;;;;;;;33.35;25.58;;;;;;;;;;5096700;28;20587;-61
2021/03/26 01:30:56;;;;;;;35.05;25.55;;;;;;;;;;5096859;28;20203;-60
2021/03/26 01:33:23;;;;;;;35.35;26.27;;;;;;;;;;5096644;28;20200;-60
2021/03/26 01:35:51;;;;;;;34.90;24.80;;;;;;;;;;5095791;28;20231;-60
2021/03/26 01:38:18;;;;;;;33.00;25.17;;;;;;;;;;5096515;28;20218;-60
2021/03/26 01:40:46;;;;;;;33.03;24.70;;;;;;;;;;5096331;28;20579;-61
2021/03/26 01:43:15;;;;;;;38.83;28.23;;;;;;;;;;5096056;28;20206;-60
2021/03/26 01:45:42;;;;;;;36.42;25.85;;;;;;;;;;5096510;28;20227;-60
2021/03/26 01:48:10;;;;;;;35.47;25.05;;;;;;;;;;5096015;28;20219;-60
2021/03/26 01:50:38;;;;;;;41.10;26.40;;;;;;;;;;5096215;28;20203;-60
2021/03/26 01:53:06;;;;;;;34.90;25.40;;;;;;;;;;5096232;28;20253;-60
2021/03/26 01:55:35;;;;;;;36.25;25.92;;;;;;;;;;5095932;28;20223;-61
2021/03/26 01:58:02;;;;;;;36.58;25.50;;;;;;;;;;5095755;28;20543;-60
2021/03/26 02:00:31;;;;;;;33.00;25.60;;;;;;;;;;5095441;28;20208;-59
2021/03/26 02:03:02;;;;;;;33.15;23.30;;;;;;;;;;5095833;28;20211;-60
2021/03/26 02:05:29;;;;;;;35.15;25.27;;;;;;;;;;5095818;28;20278;-60
2021/03/26 02:07:56;;;;;;;36.17;27.25;;;;;;;;;;5095753;28;20227;-59
2021/03/26 02:10:23;;;;;;;39.78;25.58;;;;;;;;;;5095722;28;20200;-61
2021/03/26 02:12:54;;;;;;;37.00;26.45;;;;;;;;;;5095413;28;20207;-59
2021/03/26 02:15:22;;;;;;;37.28;26.40;;;;;;;;;;5095551;28;20224;-59
2021/03/26 02:17:50;;;;;;;39.20;27.10;;;;;;;;;;5095838;28;20211;-60
2021/03/26 02:20:23;;;;;;;37.88;25.85;;;;;;;;;;5097771;28;20201;-59
2021/03/26 02:22:50;;;;;;;42.05;28.27;;;;;;;;;;5096502;28;20184;-60
2021/03/26 02:25:20;;;;;;;36.17;26.58;;;;;;;;;;5096531;28;20220;-60
2021/03/26 02:27:47;;;;;;;34.78;25.52;;;;;;;;;;5096201;28;20668;-60
2021/03/26 02:30:16;;;;;;;32.53;25.02;;;;;;;;;;5095787;28;20197;-60
2021/03/26 02:32:43;;;;;;;36.80;25.75;;;;;;;;;;5095902;28;20215;-60
2021/03/26 02:35:12;;;;;;;34.88;25.25;;;;;;;;;;5095598;28;20639;-61
2021/03/26 02:37:41;;;;;;;34.10;23.95;;;;;;;;;;5095174;28;20675;-60
2021/03/26 02:40:09;;;;;;;35.10;25.70;;;;;;;;;;5095229;28;20200;-60
2021/03/26 02:42:36;;;;;;;36.13;25.70;;;;;;;;;;5095009;28;20227;-61
2021/03/26 02:45:07;;;;;;;35.67;26.63;;;;;;;;;;5094921;28;20220;-60
2021/03/26 02:47:36;;;;;;;35.30;25.73;;;;;;;;;;5093996;28;20207;-61
2021/03/26 02:50:06;;;;;;;32.63;25.60;;;;;;;;;;5094981;28;20227;-61
2021/03/26 02:52:36;;;;;;;34.90;27.15;;;;;;;;;;5094790;28;20257;-60
2021/03/26 02:55:05;;;;;;;39.22;27.40;;;;;;;;;;5095328;28;20227;-60
2021/03/26 02:57:33;;;;;;;39.40;27.48;;;;;;;;;;5094902;28;20196;-60
2021/03/26 03:00:07;;;;;;;33.90;26.00;;;;;;;;;;5094736;28;20196;-60
2021/03/26 03:02:34;;;;;;;41.70;26.65;;;;;;;;;;5095908;28;20189;-60
2021/03/26 03:05:03;;;;;;;35.25;25.45;;;;;;;;;;5096213;28;20247;-60
2021/03/26 03:07:31;;;;;;;43.75;27.45;;;;;;;;;;5094836;28;20204;-61
2021/03/26 03:10:02;;;;;;;36.75;26.52;;;;;;;;;;5096050;28;20232;-61
2021/03/26 03:12:30;;;;;;;41.35;27.60;;;;;;;;;;5111544;28;20190;-61
2021/03/26 03:15:01;;;;;;;44.08;29.70;;;;;;;;;;5098574;28;20231;-61
2021/03/26 03:17:35;;;;;;;37.92;27.45;;;;;;;;;;5094769;28;20184;-60
2021/03/26 03:20:06;;;;;;;42.63;29.60;;;;;;;;;;5094164;28;20628;-61
2021/03/26 03:22:38;;;;;;;42.42;28.67;;;;;;;;;;5094565;28;20237;-61
2021/03/26 03:25:07;;;;;;;39.80;29.52;;;;;;;;;;5094245;28;20298;-61
2021/03/26 03:27:38;;;;;;;42.85;28.65;;;;;;;;;;5104066;28;20207;-60
2021/03/26 03:30:12;;;;;;;41.00;28.38;;;;;;;;;;5100777;28;20211;-60
2021/03/26 03:32:41;;;;;;;39.67;26.92;;;;;;;;;;5096158;28;20245;-60
2021/03/26 03:35:10;;;;;;;40.78;27.30;;;;;;;;;;5097197;28;20718;-60
2021/03/26 03:37:41;;;;;;;37.42;27.75;;;;;;;;;;5097508;28;20200;-61
2021/03/26 03:40:11;;;;;;;39.15;27.55;;;;;;;;;;5097101;28;20230;-60
2021/03/26 03:42:41;;;;;;;40.55;28.30;;;;;;;;;;5095530;28;20184;-60
2021/03/26 03:45:10;;;;;;;39.45;28.92;;;;;;;;;;5094453;28;20265;-59
2021/03/26 03:47:40;;;;;;;43.28;29.05;;;;;;;;;;5100522;28;20221;-59
2021/03/26 03:50:10;;;;;;;37.72;27.63;;;;;;;;;;5108627;28;20245;-60
2021/03/26 03:52:39;;;;;;;42.08;27.48;;;;;;;;;;5098429;28;20193;-59
2021/03/26 03:55:10;;;;;;;38.38;28.17;;;;;;;;;;5094156;28;20224;-60
2021/03/26 03:57:40;;;;;;;38.85;28.42;;;;;;;;;;5093551;28;20185;-60
2021/03/26 04:00:09;;;;;;;38.63;27.90;;;;;;;;;;5093837;28;20192;-59
2021/03/26 04:02:39;;;;;;;39.30;26.02;;;;;;;;;;5093986;28;20200;-61
2021/03/26 04:07:57;;;;;;;40.45;29.25;;;;;;;;;;5112356;27;20554;-60
2021/03/26 04:10:25;;;;;;;38.70;28.38;;;;;;;;;;5111889;28;20612;-60
2021/03/26 04:12:55;;;;;;;43.28;30.00;;;;;;;;;;5111945;28;20303;-61
2021/03/26 04:15:23;;;;;;;42.90;29.70;;;;;;;;;;5111710;28;20269;-60
2021/03/26 04:17:54;;;;;;;40.67;29.75;;;;;;;;;;5111579;28;20203;-60
2021/03/26 04:20:22;;;;;;;40.97;28.05;;;;;;;;;;5111529;28;20191;-60
2021/03/26 04:22:56;;;;;;;38.67;28.25;;;;;;;;;;5111787;28;20195;-61
2021/03/26 04:25:25;;;;;;;35.30;27.48;;;;;;;;;;5111976;28;20230;-60
2021/03/26 04:27:58;;;;;;;39.83;28.52;;;;;;;;;;5112181;28;20579;-60
2021/03/26 04:30:27;;;;;;;39.63;28.63;;;;;;;;;;5112132;28;20215;-60
2021/03/26 04:32:54;;;;;;;42.67;30.05;;;;;;;;;;5112094;28;20234;-60
2021/03/26 04:35:21;;;;;;;41.17;30.80;;;;;;;;;;5110911;28;20228;-60
2021/03/26 04:37:52;;;;;;;44.42;31.63;;;;;;;;;;5110955;28;20191;-60
2021/03/26 04:40:22;;;;;;;45.80;31.00;;;;;;;;;;5110925;28;20188;-61
2021/03/26 04:42:52;;;;;;;39.60;29.75;;;;;;;;;;5111547;28;20188;-60
2021/03/26 04:45:22;;;;;;;45.25;30.77;;;;;;;;;;5111539;28;20704;-60
2021/03/26 04:47:54;;;;;;;38.75;27.80;;;;;;;;;;5112411;28;20218;-60
2021/03/26 04:50:23;;;;;;;42.03;29.27;;;;;;;;;;5111732;28;20188;-60
2021/03/26 04:52:53;;;;;;;43.38;31.30;;;;;;;;;;5111396;28;20199;-60
2021/03/26 04:55:22;;;;;;;43.08;29.77;;;;;;;;;;5111044;28;20571;-59
2021/03/26 04:57:52;;;;;;;41.05;28.77;;;;;;;;;;5110950;28;20245;-60
2021/03/26 05:00:20;;;;;;;43.67;31.20;;;;;;;;;;5111254;28;20200;-60
2021/03/26 05:02:51;;;;;;;39.75;27.50;;;;;;;;;;5110418;28;20667;-60
2021/03/26 05:05:19;;;;;;;42.47;28.60;;;;;;;;;;5110404;28;20782;-60
2021/03/26 05:07:48;;;;;;;40.70;30.00;;;;;;;;;;5110352;28;20261;-60
2021/03/26 05:10:16;;;;;;;44.83;31.10;;;;;;;;;;5110546;28;20200;-60
2021/03/26 05:12:45;;;;;;;41.50;30.20;;;;;;;;;;5110612;28;20200;-61
2021/03/26 05:15:16;;;;;;;41.65;28.45;;;;;;;;;;5111409;28;20223;-61
2021/03/26 05:17:46;;;;;;;43.90;29.08;;;;;;;;;;5111014;28;20189;-60
2021/03/26 05:20:19;;;;;;;46.30;32.40;;;;;;;;;;5097481;28;20257;-59
2021/03/26 05:22:55;;;;;;;38.83;28.30;;;;;;;;;;5097357;28;20246;-60
2021/03/26 05:25:26;;;;;;;41.38;28.88;;;;;;;;;;5097615;28;20216;-60
2021/03/26 05:27:53;;;;;;;42.17;28.92;;;;;;;;;;5097250;28;20200;-61
2021/03/26 05:30:22;;;;;;;43.65;30.13;;;;;;;;;;5097491;28;20204;-61
2021/03/26 05:32:53;;;;;;;44.35;29.50;;;;;;;;;;5096891;28;20282;-60
2021/03/26 05:35:23;;;;;;;42.58;29.92;;;;;;;;;;5096164;28;20220;-59
2021/03/26 05:37:55;;;;;;;44.67;30.60;;;;;;;;;;5097643;28;20196;-59
2021/03/26 05:40:30;;;;;;;41.47;28.98;;;;;;;;;;5096215;28;20191;-59
2021/03/26 05:42:59;;;;;;;43.28;30.33;;;;;;;;;;5097029;28;20186;-61
2021/03/26 05:45:46;;;;;;;46.78;30.15;;;;;;;;;;5096697;28;20236;-60
2021/03/26 05:48:26;;;;;;;44.55;29.75;;;;;;;;;;5093570;28;20222;-59
2021/03/26 05:51:13;;;;;;;47.00;31.48;;;;;;;;;;5098169;28;20509;-61
2021/03/26 05:53:44;;;;;;;40.33;28.45;;;;;;;;;;5094710;28;20597;-59
2021/03/26 05:56:17;;;;;;;40.38;29.02;;;;;;;;;;5106583;28;20334;-59
2021/03/26 05:59:01;;;;;;;42.42;30.25;;;;;;;;;;5102223;28;20188;-60
2021/03/26 06:01:33;;;;;;;45.13;29.10;;;;;;;;;;5103594;28;20291;-59
2021/03/26 06:04:14;;;;;;;42.20;29.50;;;;;;;;;;5107353;28;20219;-59
2021/03/26 06:06:46;;;;;;;43.55;29.90;;;;;;;;;;5106427;28;20246;-60
2021/03/26 06:09:33;;;;;;;44.80;30.52;;;;;;;;;;5108006;28;20230;-60
2021/03/26 06:12:13;;;;;;;48.42;32.17;;;;;;;;;;5102582;28;20184;-60
2021/03/26 06:14:57;;;;;;;45.75;31.08;;;;;;;;;;5101929;28;20776;-61
2021/03/26 06:17:51;;;;;;;48.30;30.75;;;;;;;;;;5093162;28;20197;-60
2021/03/26 06:20:32;;;;;;;44.45;30.60;;;;;;;;;;5106336;28;20184;-60
2021/03/26 06:23:25;;;;;;;42.28;31.17;;;;;;;;;;5102371;28;20185;-60
2021/03/26 06:25:55;;;;;;;45.33;29.75;;;;;;;;;;5104530;28;20220;-61
2021/03/26 06:28:33;;;;;;;41.10;28.85;;;;;;;;;;5104287;28;20255;-59
2021/03/26 06:31:29;;;;;;;44.72;29.88;;;;;;;;;;5101771;28;20184;-60
2021/03/26 06:34:08;;;;;;;45.15;30.35;;;;;;;;;;5097461;28;20217;-60
2021/03/26 06:36:51;;;;;;;39.72;28.75;;;;;;;;;;5101497;28;20196;-60
2021/03/26 06:39:27;;;;;;;43.97;30.02;;;;;;;;;;5102465;28;20192;-60
2021/03/26 06:42:07;;;;;;;42.28;30.33;;;;;;;;;;5099588;28;20234;-61
2021/03/26 06:44:44;;;;;;;37.88;27.88;;;;;;;;;;5103006;28;20228;-61
2021/03/26 06:47:15;;;;;;;40.67;28.88;;;;;;;;;;5100072;28;20212;-60
2021/03/26 06:49:48;;;;;;;41.47;30.50;;;;;;;;;;5099508;28;20634;-61
2021/03/26 06:52:25;;;;;;;41.20;29.25;;;;;;;;;;5100768;28;20185;-59
2021/03/26 06:55:09;;;;;;;41.72;29.65;;;;;;;;;;5100153;28;20222;-61
2021/03/26 06:57:57;;;;;;;39.90;30.02;;;;;;;;;;5096901;28;20258;-60
2021/03/26 07:00:40;;;;;;;40.67;28.50;;;;;;;;;;5069111;28;20215;-61
2021/03/26 07:03:31;;;;;;;39.88;29.30;;;;;;;;;;5094565;28;20433;-60
2021/03/26 07:06:04;;;;;;;38.40;27.57;;;;;;;;;;5094425;28;20240;-59
2021/03/26 07:08:54;;;;;;;44.57;27.50;;;;;;;;;;5093713;28;20955;-60
2021/03/26 07:11:31;;;;;;;40.47;26.90;;;;;;;;;;5094208;28;20430;-60
2021/03/26 07:14:11;;;;;;;39.93;28.37;;;;;;;;;;5094272;28;20883;-61
2021/03/26 07:16:47;;;;;;;38.10;27.23;;;;;;;;;;5095625;28;20437;-60
2021/03/26 07:19:21;;;;;;;40.97;28.73;;;;;;;;;;5094679;28;20428;-59
2021/03/26 07:21:55;;;;;;;39.57;27.20;;;;;;;;;;5095426;28;20426;-60
2021/03/26 07:24:37;;;;;;;37.93;27.57;;;;;;;;;;5095087;28;20466;-59
2021/03/26 07:27:22;;;;;;;40.03;28.00;;;;;;;;;;5095539;28;20557;-59
2021/03/26 07:30:06;;;;;;;37.23;27.40;;;;;;;;;;5095580;28;20423;-60
2021/03/26 07:32:58;;;;;;;36.63;27.87;;;;;;;;;;5094431;28;20430;-60
2021/03/26 07:35:46;;;;;;;38.23;28.10;;;;;;;;;;5106201;28;20469;-63
2021/03/26 07:38:31;;;;;;;43.30;30.00;;;;;;;;;;5106412;28;20432;-60
2021/03/26 07:41:16;;;;;;;39.23;28.70;;;;;;;;;;5071696;28;20453;-60
2021/03/26 07:43:49;;;;;;;38.80;28.30;;;;;;;;;;5095685;28;20435;-60
2021/03/26 07:46:34;;;;;;;35.57;26.07;;;;;;;;;;5093622;28;20462;-60
2021/03/26 07:49:10;;;;;;;39.20;28.50;;;;;;;;;;5093117;28;20947;-60
2021/03/26 07:51:39;;;;;;;38.93;28.60;;;;;;;;;;5093228;28;20427;-61
2021/03/26 07:54:17;;;;;;;38.50;27.27;;;;;;;;;;5093047;28;20521;-61
2021/03/26 07:57:02;;;;;;;33.70;26.10;;;;;;;;;;5093194;28;20411;-59
2021/03/26 07:59:46;;;;;;;38.13;25.80;;;;;;;;;;5085272;28;20452;-60
2021/03/26 08:02:17;;;;;;;36.30;27.40;;;;;;;;;;5095035;28;20432;-59
2021/03/26 08:04:47;;;;;;;39.33;27.77;;;;;;;;;;5093662;28;20466;-60
2021/03/26 08:07:33;;;;;;;36.37;26.37;;;;;;;;;;5093346;28;20478;-60
2021/03/26 08:10:09;;;;;;;41.93;29.33;;;;;;;;;;5093509;28;20847;-59
2021/03/26 08:12:42;;;;;;;39.93;29.53;;;;;;;;;;5093145;28;20432;-60
2021/03/26 08:15:30;;;;;;;34.93;27.43;;;;;;;;;;5092956;28;20468;-61
2021/03/26 08:18:05;;;;;;;40.07;30.37;;;;;;;;;;5088544;28;20456;-60
2021/03/26 08:20:33;;;;;;;40.13;29.20;;;;;;;;;;5093377;28;20436;-59
2021/03/26 08:23:15;;;;;;;37.77;27.10;;;;;;;;;;5093001;28;20445;-60
2021/03/26 08:25:47;;;;;;;34.63;26.20;;;;;;;;;;5092924;28;20461;-60
2021/03/26 08:28:28;;;;;;;38.93;28.60;;;;;;;;;;5092700;28;20539;-61
2021/03/26 08:31:02;;;;;;;41.60;29.00;;;;;;;;;;5080084;28;20446;-60
2021/03/26 08:33:38;;;;;;;37.40;28.63;;;;;;;;;;5093152;28;20457;-60
2021/03/26 08:36:14;;;;;;;36.27;27.00;;;;;;;;;;5093262;28;20429;-61
2021/03/26 08:38:45;;;;;;;39.50;27.37;;;;;;;;;;5092709;28;20436;-60
2021/03/26 08:41:15;;;;;;;35.23;24.83;;;;;;;;;;5092627;28;20430;-60
2021/03/26 08:43:42;;;;;;;35.77;28.30;;;;;;;;;;5093061;28;20449;-60
2021/03/26 08:46:17;;;;;;;29.27;23.80;;;;;;;;;;5092593;28;20433;-60
2021/03/26 08:48:48;;;;;;;35.83;26.13;;;;;;;;;;5093226;28;20423;-59
2021/03/26 08:51:42;;;;;;;38.60;29.80;;;;;;;;;;5092944;28;20426;-59
2021/03/26 08:54:16;;;;;;;37.10;28.60;;;;;;;;;;5059509;28;20464;-60
2021/03/26 08:56:48;;;;;;;34.83;27.03;;;;;;;;;;5096220;28;20425;-61
2021/03/26 08:59:45;;;;;;;35.07;27.43;;;;;;;;;;5096924;28;20423;-59
2021/03/26 09:02:18;;;;;;;35.17;26.33;;;;;;;;;;5034036;28;20467;-61
2021/03/26 09:05:03;;;;;;;33.80;26.70;;;;;;;;;;5085597;28;20545;-59
2021/03/26 09:07:38;;;;;;;30.63;25.47;;;;;;;;;;5097237;28;20492;-60
2021/03/26 09:10:18;;;;;;;32.43;26.00;;;;;;;;;;5098382;28;20902;-59
2021/03/26 09:12:50;;;;;;;32.70;25.60;;;;;;;;;;5098085;28;20791;-60
2021/03/26 09:15:35;;;;;;;29.87;25.30;;;;;;;;;;5097389;28;20481;-60
2021/03/26 09:18:07;;;;;;;34.83;26.40;;;;;;;;;;5098351;28;20440;-59
2021/03/26 09:20:39;;;;;;;30.83;24.90;;;;;;;;;;5098245;28;20422;-59
2021/03/26 09:23:20;;;;;;;26.57;22.53;;;;;;;;;;5097838;28;20958;-60
2021/03/26 09:25:49;;;;;;;27.07;20.63;;;;;;;;;;5098519;28;20533;-60
2021/03/26 09:28:24;;;;;;;23.90;19.87;;;;;;;;;;5097740;28;20474;-60
2021/03/26 09:30:55;;;;;;;25.40;20.77;;;;;;;;;;5097826;28;20483;-59
2021/03/26 09:33:22;;;;;;;25.20;21.10;;;;;;;;;;5097438;28;20430;-61
2021/03/26 09:35:53;;;;;;;25.07;20.50;;;;;;;;;;5098494;28;20473;-58
2021/03/26 09:38:26;;;;;;;20.63;17.73;;;;;;;;;;5098258;28;20431;-60
2021/03/26 09:41:02;;;;;;;24.90;18.67;;;;;;;;;;5097425;28;20443;-59
2021/03/26 09:43:31;;;;;;;25.20;17.67;;;;;;;;;;5097146;28;20430;-59
2021/03/26 09:46:05;;;;;;;23.50;18.93;;;;;;;;;;5097702;28;20495;-59
2021/03/26 09:48:51;;;;;;;20.50;17.93;;;;;;;;;;5098231;28;20496;-59
2021/03/26 09:51:21;;;;;;;23.73;18.90;;;;;;;;;;5103759;28;20441;-58
2021/03/26 09:53:50;;;;;;;21.83;18.60;;;;;;;;;;5099929;28;20790;-57
2021/03/26 09:56:42;;;;;;;27.33;19.73;;;;;;;;;;5098323;28;20465;-59
2021/03/26 09:59:13;;;;;;;27.77;17.83;;;;;;;;;;5096511;28;20427;-59
2021/03/26 10:01:42;;;;;;;23.60;18.50;;;;;;;;;;5096102;28;20906;-59
2021/03/26 10:04:11;;;;;;;24.63;19.10;;;;;;;;;;5096885;28;20807;-60
2021/03/26 10:06:41;;;;;;;24.73;17.83;;;;;;;;;;5095515;28;20486;-59
2021/03/26 10:09:23;;;;;;;22.07;17.57;;;;;;;;;;5096255;28;20507;-60
2021/03/26 10:12:14;;;;;;;24.33;20.00;;;;;;;;;;5095292;28;20937;-59
2021/03/26 10:14:44;;;;;;;22.03;17.20;;;;;;;;;;5079771;28;20839;-60
2021/03/26 10:17:28;;;;;;;22.30;18.03;;;;;;;;;;5095365;28;20422;-60
2021/03/26 10:19:56;;;;;;;22.43;17.30;;;;;;;;;;5094999;28;20426;-60
2021/03/26 10:22:24;;;;;;;20.50;17.13;;;;;;;;;;5095784;28;20526;-60
2021/03/26 10:24:54;;;;;;;21.03;17.87;;;;;;;;;;5094880;28;20457;-59
2021/03/26 10:27:22;;;;;;;19.97;17.13;;;;;;;;;;5095436;28;20466;-58
2021/03/26 10:29:51;;;;;;;22.30;17.57;;;;;;;;;;5094486;28;20449;-59
2021/03/26 10:32:22;;;;;;;19.70;17.10;;;;;;;;;;5094674;28;20443;-60
2021/03/26 10:34:49;;;;;;;22.27;18.70;;;;;;;;;;5094573;28;20861;-59
2021/03/26 10:37:33;;;;;;;21.90;18.80;;;;;;;;;;5095374;28;20797;-56
2021/03/26 10:40:02;;;;;;;26.03;18.63;;;;;;;;;;5084845;28;20949;-60
2021/03/26 10:42:40;;;;;;;21.83;17.43;;;;;;;;;;5094756;28;20545;-60
2021/03/26 10:45:17;;;;;;;21.07;17.93;;;;;;;;;;5094658;28;20561;-58
2021/03/26 10:47:49;;;;;;;21.10;16.73;;;;;;;;;;5094942;28;20462;-59
2021/03/26 10:50:22;;;;;;;25.10;19.20;;;;;;;;;;5094619;28;20984;-60
2021/03/26 10:52:52;;;;;;;23.30;19.00;;;;;;;;;;5094392;28;20442;-60
2021/03/26 10:55:22;;;;;;;19.40;17.20;;;;;;;;;;5094208;28;20458;-60
2021/03/26 10:57:56;;;;;;;21.77;17.00;;;;;;;;;;5095781;28;20449;-60
2021/03/26 11:00:25;;;;;;;18.37;15.33;;;;;;;;;;5094739;28;20805;-58
2021/03/26 11:03:01;;;;;;;17.60;13.80;;;;;;;;;;5094405;28;20504;-59
2021/03/26 11:05:49;;;;;;;16.23;12.80;;;;;;;;;;5096070;28;20960;-60
2021/03/26 11:08:29;;;;;;;15.17;13.30;;;;;;;;;;5089230;28;20474;-59
2021/03/26 11:10:58;;;;;;;18.13;14.80;;;;;;;;;;5094700;28;20483;-60
2021/03/26 11:13:31;;;;;;;19.50;15.80;;;;;;;;;;5094042;28;20817;-60
2021/03/26 11:15:59;;;;;;;17.23;13.97;;;;;;;;;;5093892;28;20779;-59
2021/03/26 11:18:29;;;;;;;22.30;15.70;;;;;;;;;;5093940;28;20445;-60
2021/03/26 11:20:58;;;;;;;17.53;15.43;;;;;;;;;;5093573;28;20949;-59
2021/03/26 11:23:27;;;;;;;20.00;15.73;;;;;;;;;;5093992;28;20812;-59
2021/03/26 11:25:57;;;;;;;26.17;14.13;;;;;;;;;;5094881;28;20478;-59
2021/03/26 11:28:30;;;;;;;19.40;14.03;;;;;;;;;;5094498;28;20482;-59
2021/03/26 11:31:10;;;;;;;15.67;12.87;;;;;;;;;;5094354;28;20506;-60
2021/03/26 11:33:43;;;;;;;16.43;13.10;;;;;;;;;;5094005;28;20887;-60
2021/03/26 11:36:30;;;;;;;18.63;15.37;;;;;;;;;;5094190;28;20434;-62
2021/03/26 11:38:57;;;;;;;15.00;12.90;;;;;;;;;;5094341;28;20430;-60
2021/03/26 11:41:24;;;;;;;15.57;13.10;;;;;;;;;;5093974;28;20438;-59
2021/03/26 11:43:55;;;;;;;16.80;13.13;;;;;;;;;;5093745;28;20950;-61
2021/03/26 11:46:24;;;;;;;16.47;13.57;;;;;;;;;;5094122;28;20433;-60
2021/03/26 11:48:53;;;;;;;14.50;12.23;;;;;;;;;;5093841;28;20447;-60
2021/03/26 11:51:29;;;;;;;16.03;13.00;;;;;;;;;;5094423;28;20442;-60
2021/03/26 11:54:02;;;;;;;13.93;12.43;;;;;;;;;;5094385;28;20462;-60
2021/03/26 11:56:42;;;;;;;13.97;11.43;;;;;;;;;;5094679;28;20517;-59
2021/03/26 11:59:14;;;;;;;14.03;12.63;;;;;;;;;;5095476;28;20457;-60
2021/03/26 12:01:46;;;;;;;13.30;11.20;;;;;;;;;;5095037;28;20827;-59
2021/03/26 12:04:16;;;;;;;13.27;11.37;;;;;;;;;;5096153;28;20462;-60
2021/03/26 12:06:45;;;;;;;12.63;11.03;;;;;;;;;;5094910;28;20913;-61
2021/03/26 12:09:15;;;;;;;14.93;13.30;;;;;;;;;;5095309;28;20448;-64
2021/03/26 12:11:48;;;;;;;13.33;11.73;;;;;;;;;;5095690;28;20446;-61
2021/03/26 12:14:21;;;;;;;13.83;12.40;;;;;;;;;;5095225;28;20992;-60
2021/03/26 12:16:52;;;;;;;17.43;12.93;;;;;;;;;;5094902;28;20460;-59
2021/03/26 12:19:20;;;;;;;15.87;12.93;;;;;;;;;;5094981;28;20435;-61
2021/03/26 12:21:52;;;;;;;15.70;12.57;;;;;;;;;;5093792;28;20442;-60
2021/03/26 12:24:22;;;;;;;16.13;13.30;;;;;;;;;;5093385;28;20462;-61
2021/03/26 12:26:56;;;;;;;13.67;11.13;;;;;;;;;;5093582;28;20852;-60
2021/03/26 12:29:26;;;;;;;11.30;10.20;;;;;;;;;;5097181;28;20423;-61
2021/03/26 12:31:55;;;;;;;12.30;9.87;;;;;;;;;;5097673;28;20453;-61
2021/03/26 12:34:39;;;;;;;14.60;10.83;;;;;;;;;;5096988;28;20461;-59
2021/03/26 12:37:07;;;;;;;12.87;11.13;;;;;;;;;;5097645;28;20487;-61
2021/03/26 12:39:36;;;;;;;15.13;13.53;;;;;;;;;;5096849;28;20438;-61
2021/03/26 12:42:05;;;;;;;14.20;12.30;;;;;;;;;;5097166;28;20964;-62
2021/03/26 12:44:35;;;;;;;13.93;12.30;;;;;;;;;;5098535;28;20462;-60
2021/03/26 12:47:08;;;;;;;11.73;10.53;;;;;;;;;;5100970;28;20805;-60
2021/03/26 12:49:40;;;;;;;13.43;11.27;;;;;;;;;;5100468;28;20458;-60
2021/03/26 12:52:16;;;;;;;15.00;12.67;;;;;;;;;;5099963;28;20456;-60
2021/03/26 12:54:54;;;;;;;13.90;12.40;;;;;;;;;;5104399;28;20973;-61
2021/03/26 12:57:26;;;;;;;13.87;12.37;;;;;;;;;;5105950;28;20426;-59
2021/03/26 12:59:56;;;;;;;14.23;11.23;;;;;;;;;;5103873;28;20513;-62
2021/03/26 13:02:27;;;;;;;12.60;11.00;;;;;;;;;;5100382;28;20903;-60
2021/03/26 13:04:58;;;;;;;13.53;10.70;;;;;;;;;;5099776;28;20465;-62
2021/03/26 13:07:30;;;;;;;14.30;10.90;;;;;;;;;;5098663;28;20490;-61
2021/03/26 13:10:01;;;;;;;12.20;11.00;;;;;;;;;;5097310;28;20886;-61
2021/03/26 13:12:29;;;;;;;12.17;10.93;;;;;;;;;;5098844;28;20426;-60
2021/03/26 13:14:59;;;;;;;15.80;11.50;;;;;;;;;;5096781;28;20804;-61
2021/03/26 13:17:27;;;;;;;13.80;11.13;;;;;;;;;;5096636;28;20448;-60
2021/03/26 13:20:01;;;;;;;12.20;10.20;;;;;;;;;;5097132;28;20441;-60
2021/03/26 13:22:34;;;;;;;12.63;11.13;;;;;;;;;;5096498;28;20538;-60
2021/03/26 13:25:15;;;;;;;12.60;11.30;;;;;;;;;;5096271;28;20466;-60
2021/03/26 13:27:45;;;;;;;13.27;11.30;;;;;;;;;;5096920;28;20470;-60
2021/03/26 13:30:33;;;;;;;14.40;11.30;;;;;;;;;;5096617;28;20824;-62
2021/03/26 13:33:14;;;;;;;15.47;11.17;;;;;;;;;;5096314;28;20417;-61
2021/03/26 13:35:45;;;;;;;13.97;11.23;;;;;;;;;;5094618;28;20497;-63
2021/03/26 13:38:25;;;;;;;12.80;11.20;;;;;;;;;;5096781;28;20418;-62
2021/03/26 13:40:53;;;;;;;12.87;10.73;;;;;;;;;;5096871;28;20453;-61
2021/03/26 13:43:21;;;;;;;12.53;10.80;;;;;;;;;;5096584;28;20442;-62
2021/03/26 13:45:50;;;;;;;12.37;10.90;;;;;;;;;;5096555;28;20469;-62
2021/03/26 13:48:18;;;;;;;13.23;11.03;;;;;;;;;;5096724;28;20489;-61
2021/03/26 13:50:48;;;;;;;14.47;11.67;;;;;;;;;;5096624;28;20446;-62
2021/03/26 13:53:22;;;;;;;14.37;10.43;;;;;;;;;;5095990;28;20552;-62
2021/03/26 13:55:50;;;;;;;12.83;10.80;;;;;;;;;;5095520;28;20977;-62
2021/03/26 13:58:22;;;;;;;10.70;9.60;;;;;;;;;;5095776;28;20792;-61
2021/03/26 14:00:50;;;;;;;10.90;9.70;;;;;;;;;;5096599;28;20434;-61
2021/03/26 14:03:22;;;;;;;12.87;10.63;;;;;;;;;;5095504;28;20488;-61
2021/03/26 14:05:52;;;;;;;13.40;11.13;;;;;;;;;;5094805;28;20926;-62
2021/03/26 14:08:23;;;;;;;12.27;10.97;;;;;;;;;;5097730;28;20523;-62
2021/03/26 14:11:00;;;;;;;12.27;10.37;;;;;;;;;;5099305;28;20432;-62
2021/03/26 14:13:29;;;;;;;11.87;10.67;;;;;;;;;;5101891;28;20422;-61
2021/03/26 14:16:00;;;;;;;13.50;10.37;;;;;;;;;;5101626;28;20469;-61
2021/03/26 14:18:29;;;;;;;12.00;9.60;;;;;;;;;;5102280;28;20434;-60
2021/03/26 14:21:04;;;;;;;12.73;10.00;;;;;;;;;;5101345;28;20549;-62
2021/03/26 14:23:33;;;;;;;13.90;10.40;;;;;;;;;;5103378;28;20479;-60
2021/03/26 14:26:02;;;;;;;10.83;9.63;;;;;;;;;;5100790;28;20457;-62
2021/03/26 14:28:32;;;;;;;11.27;9.30;;;;;;;;;;5106046;28;20474;-62
2021/03/26 14:31:03;;;;;;;13.70;9.40;;;;;;;;;;5109968;28;20446;-63
2021/03/26 14:33:41;;;;;;;15.10;13.43;;;;;;;;;;5100859;28;20427;-61
2021/03/26 14:36:12;;;;;;;10.57;9.47;;;;;;;;;;5097016;28;20461;-61
2021/03/26 14:38:41;;;;;;;14.23;9.60;;;;;;;;;;5106983;28;20418;-61
2021/03/26 14:41:17;;;;;;;13.73;12.00;;;;;;;;;;5105665;28;20442;-60
2021/03/26 14:43:45;;;;;;;10.40;8.37;;;;;;;;;;5105414;28;20464;-60
2021/03/26 14:46:12;;;;;;;18.70;14.60;;;;;;;;;;5098774;28;20446;-60
2021/03/26 14:48:42;;;;;;;12.30;11.00;;;;;;;;;;5099597;28;20474;-61
2021/03/26 14:51:13;;;;;;;11.80;9.90;;;;;;;;;;5099200;28;20442;-61